YFE weather

Forestville Airport
Forestville, Quebec, Canada

Public forecast

Using degrees Celsius for public forecast. Weather courtesy of forecast.io.

METAR (pilot weather report)

Closest report is Mont Joli Airport, 36.2 nm (67.0 km) ESE. Retrieved 2019/05/23 02:00 UTC (33 minutes ago):

CYYY 230200Z 24003KT 15SM SCT060 BKN240 09/04 A3020 RMK SC4CI1 SLP231

TAF (pilot weather forecast)

Closest forecast is Mont Joli Airport, 36.2 nm (67.0 km) ESE. Retrieved 2019/05/23 02:00 UTC (33 minutes ago):

TAF CYYY 230138Z 2302/2314 VRB03KT P6SM BKN060 FM230500 VRB03KT P6SM SCT060 BKN200 RMK NXT FCST BY 230800Z